sensor_id;sensor_type;location;lat;lon;timestamp;temperature;humidity
16781;DHT22;8507;50.056;8.248;2023-07-20T00:02:15;19.90;99.90
16781;DHT22;8507;50.056;8.248;2023-07-20T00:04:40;19.90;99.90
16781;DHT22;8507;50.056;8.248;2023-07-20T00:07:06;19.80;99.90
16781;DHT22;8507;50.056;8.248;2023-07-20T00:09:31;19.70;99.90
16781;DHT22;8507;50.056;8.248;2023-07-20T00:11:57;19.80;99.90
16781;DHT22;8507;50.056;8.248;2023-07-20T00:14:23;19.70;99.90
16781;DHT22;8507;50.056;8.248;2023-07-20T00:16:50;19.70;99.90
16781;DHT22;8507;50.056;8.248;2023-07-20T00:19:25;19.70;99.90
16781;DHT22;8507;50.056;8.248;2023-07-20T00:21:52;19.70;99.90
16781;DHT22;8507;50.056;8.248;2023-07-20T00:24:17;19.70;99.90
16781;DHT22;8507;50.056;8.248;2023-07-20T00:26:43;19.60;99.90
16781;DHT22;8507;50.056;8.248;2023-07-20T00:29:09;19.60;99.90
16781;DHT22;8507;50.056;8.248;2023-07-20T00:31:35;19.60;99.90
16781;DHT22;8507;50.056;8.248;2023-07-20T00:34:05;19.50;99.90
16781;DHT22;8507;50.056;8.248;2023-07-20T00:36:31;19.40;99.90
16781;DHT22;8507;50.056;8.248;2023-07-20T00:38:57;19.30;99.90
16781;DHT22;8507;50.056;8.248;2023-07-20T00:41:22;19.30;99.90
16781;DHT22;8507;50.056;8.248;2023-07-20T00:43:48;19.30;99.90
16781;DHT22;8507;50.056;8.248;2023-07-20T00:46:14;19.30;99.90
16781;DHT22;8507;50.056;8.248;2023-07-20T00:48:40;19.30;99.90
16781;DHT22;8507;50.056;8.248;2023-07-20T00:51:07;19.20;99.90
16781;DHT22;8507;50.056;8.248;2023-07-20T00:53:32;19.10;99.90
16781;DHT22;8507;50.056;8.248;2023-07-20T00:55:58;19.00;99.90
16781;DHT22;8507;50.056;8.248;2023-07-20T00:58:24;19.00;99.90
16781;DHT22;8507;50.056;8.248;2023-07-20T01:00:50;18.90;99.90
16781;DHT22;8507;50.056;8.248;2023-07-20T01:03:15;18.80;99.90
16781;DHT22;8507;50.056;8.248;2023-07-20T01:08:51;18.80;99.90
16781;DHT22;8507;50.056;8.248;2023-07-20T01:11:43;18.90;99.90
16781;DHT22;8507;50.056;8.248;2023-07-20T01:14:09;18.80;99.90
16781;DHT22;8507;50.056;8.248;2023-07-20T01:16:35;18.80;99.90
16781;DHT22;8507;50.056;8.248;2023-07-20T01:19:01;18.80;99.90
16781;DHT22;8507;50.056;8.248;2023-07-20T01:21:32;18.80;99.90
16781;DHT22;8507;50.056;8.248;2023-07-20T01:32:33;18.80;99.90
16781;DHT22;8507;50.056;8.248;2023-07-20T01:35:01;18.80;99.90
16781;DHT22;8507;50.056;8.248;2023-07-20T01:37:28;18.70;99.90
16781;DHT22;8507;50.056;8.248;2023-07-20T01:39:55;18.70;99.90
16781;DHT22;8507;50.056;8.248;2023-07-20T01:42:24;18.60;99.90
16781;DHT22;8507;50.056;8.248;2023-07-20T01:44:53;18.50;99.90
16781;DHT22;8507;50.056;8.248;2023-07-20T01:47:19;18.60;99.90
16781;DHT22;8507;50.056;8.248;2023-07-20T01:49:44;18.60;99.90
16781;DHT22;8507;50.056;8.248;2023-07-20T01:52:10;18.60;99.90
16781;DHT22;8507;50.056;8.248;2023-07-20T01:54:35;18.60;99.90
16781;DHT22;8507;50.056;8.248;2023-07-20T01:57:01;18.50;99.90
16781;DHT22;8507;50.056;8.248;2023-07-20T01:59:27;18.50;99.90
16781;DHT22;8507;50.056;8.248;2023-07-20T02:01:52;18.60;99.90
16781;DHT22;8507;50.056;8.248;2023-07-20T02:04:18;18.50;99.90
16781;DHT22;8507;50.056;8.248;2023-07-20T02:06:44;18.50;99.90
16781;DHT22;8507;50.056;8.248;2023-07-20T02:09:09;18.50;99.90
16781;DHT22;8507;50.056;8.248;2023-07-20T02:11:35;18.60;99.90
16781;DHT22;8507;50.056;8.248;2023-07-20T02:14:00;18.50;99.90
16781;DHT22;8507;50.056;8.248;2023-07-20T02:16:26;18.50;99.90
16781;DHT22;8507;50.056;8.248;2023-07-20T02:18:52;18.50;99.90
16781;DHT22;8507;50.056;8.248;2023-07-20T02:21:18;18.50;99.90
16781;DHT22;8507;50.056;8.248;2023-07-20T02:23:43;18.50;99.90
16781;DHT22;8507;50.056;8.248;2023-07-20T02:26:09;18.50;99.90
16781;DHT22;8507;50.056;8.248;2023-07-20T02:28:34;18.50;99.90
16781;DHT22;8507;50.056;8.248;2023-07-20T02:31:00;18.50;99.90
16781;DHT22;8507;50.056;8.248;2023-07-20T02:33:26;18.40;99.90
16781;DHT22;8507;50.056;8.248;2023-07-20T02:35:52;18.30;99.90
16781;DHT22;8507;50.056;8.248;2023-07-20T02:38:17;18.30;99.90
16781;DHT22;8507;50.056;8.248;2023-07-20T02:40:43;18.30;99.90
16781;DHT22;8507;50.056;8.248;2023-07-20T02:43:08;18.20;99.90
16781;DHT22;8507;50.056;8.248;2023-07-20T02:45:35;18.20;99.90
16781;DHT22;8507;50.056;8.248;2023-07-20T02:48:00;18.20;99.90
16781;DHT22;8507;50.056;8.248;2023-07-20T02:50:26;18.10;99.90
16781;DHT22;8507;50.056;8.248;2023-07-20T02:52:51;18.10;99.90
16781;DHT22;8507;50.056;8.248;2023-07-20T02:55:17;18.10;99.90
16781;DHT22;8507;50.056;8.248;2023-07-20T02:57:43;18.10;99.90
16781;DHT22;8507;50.056;8.248;2023-07-20T03:00:09;18.10;99.90
16781;DHT22;8507;50.056;8.248;2023-07-20T03:02:34;18.10;99.90
16781;DHT22;8507;50.056;8.248;2023-07-20T03:05:00;18.10;99.90
16781;DHT22;8507;50.056;8.248;2023-07-20T03:07:28;18.00;99.90
16781;DHT22;8507;50.056;8.248;2023-07-20T03:09:54;18.00;99.90
16781;DHT22;8507;50.056;8.248;2023-07-20T03:12:20;17.90;99.90
16781;DHT22;8507;50.056;8.248;2023-07-20T03:14:46;17.90;99.90
16781;DHT22;8507;50.056;8.248;2023-07-20T03:17:12;17.90;99.90
16781;DHT22;8507;50.056;8.248;2023-07-20T03:19:37;17.90;99.90
16781;DHT22;8507;50.056;8.248;2023-07-20T03:22:03;17.90;99.90
16781;DHT22;8507;50.056;8.248;2023-07-20T03:24:28;17.90;99.90
16781;DHT22;8507;50.056;8.248;2023-07-20T03:26:54;17.90;99.90
16781;DHT22;8507;50.056;8.248;2023-07-20T03:29:19;17.80;99.90
16781;DHT22;8507;50.056;8.248;2023-07-20T03:31:45;17.90;99.90
16781;DHT22;8507;50.056;8.248;2023-07-20T03:34:10;17.90;99.90
16781;DHT22;8507;50.056;8.248;2023-07-20T03:36:36;17.90;99.90
16781;DHT22;8507;50.056;8.248;2023-07-20T03:39:01;17.90;99.90
16781;DHT22;8507;50.056;8.248;2023-07-20T03:41:28;17.90;99.90
16781;DHT22;8507;50.056;8.248;2023-07-20T03:43:53;17.90;99.90
16781;DHT22;8507;50.056;8.248;2023-07-20T03:46:19;17.80;99.90
16781;DHT22;8507;50.056;8.248;2023-07-20T03:48:45;17.70;99.90
16781;DHT22;8507;50.056;8.248;2023-07-20T03:51:10;17.60;99.90
16781;DHT22;8507;50.056;8.248;2023-07-20T03:53:36;17.60;99.90
16781;DHT22;8507;50.056;8.248;2023-07-20T03:56:02;17.60;99.90
16781;DHT22;8507;50.056;8.248;2023-07-20T03:58:27;17.60;99.90
16781;DHT22;8507;50.056;8.248;2023-07-20T04:00:53;17.60;99.90
16781;DHT22;8507;50.056;8.248;2023-07-20T04:03:19;17.80;99.90
16781;DHT22;8507;50.056;8.248;2023-07-20T04:05:45;17.80;99.90
16781;DHT22;8507;50.056;8.248;2023-07-20T04:08:11;18.00;99.90
16781;DHT22;8507;50.056;8.248;2023-07-20T04:10:37;18.00;99.90
16781;DHT22;8507;50.056;8.248;2023-07-20T04:13:03;18.10;99.90
16781;DHT22;8507;50.056;8.248;2023-07-20T04:15:29;18.00;99.90
16781;DHT22;8507;50.056;8.248;2023-07-20T04:17:55;18.10;99.90
16781;DHT22;8507;50.056;8.248;2023-07-20T04:20:22;18.10;99.90
16781;DHT22;8507;50.056;8.248;2023-07-20T04:22:47;18.30;99.90
16781;DHT22;8507;50.056;8.248;2023-07-20T04:25:13;19.00;99.90
16781;DHT22;8507;50.056;8.248;2023-07-20T04:27:38;18.80;99.90
16781;DHT22;8507;50.056;8.248;2023-07-20T04:30:06;18.70;99.90
16781;DHT22;8507;50.056;8.248;2023-07-20T04:32:32;18.60;99.90
16781;DHT22;8507;50.056;8.248;2023-07-20T04:34:59;18.70;99.90
16781;DHT22;8507;50.056;8.248;2023-07-20T04:37:24;18.60;99.90
16781;DHT22;8507;50.056;8.248;2023-07-20T04:39:50;18.70;99.90
16781;DHT22;8507;50.056;8.248;2023-07-20T04:42:15;18.70;99.90
16781;DHT22;8507;50.056;8.248;2023-07-20T04:44:41;18.80;99.90
16781;DHT22;8507;50.056;8.248;2023-07-20T04:47:07;19.00;99.90
16781;DHT22;8507;50.056;8.248;2023-07-20T04:49:34;18.90;99.90
16781;DHT22;8507;50.056;8.248;2023-07-20T04:51:59;18.90;99.90
16781;DHT22;8507;50.056;8.248;2023-07-20T04:54:25;18.90;99.90
16781;DHT22;8507;50.056;8.248;2023-07-20T04:56:53;18.90;99.90
16781;DHT22;8507;50.056;8.248;2023-07-20T04:59:18;18.90;99.90
16781;DHT22;8507;50.056;8.248;2023-07-20T05:01:44;18.90;99.90
16781;DHT22;8507;50.056;8.248;2023-07-20T05:04:09;18.80;99.90
16781;DHT22;8507;50.056;8.248;2023-07-20T05:06:35;18.70;99.90
16781;DHT22;8507;50.056;8.248;2023-07-20T05:09:00;18.60;99.90
16781;DHT22;8507;50.056;8.248;2023-07-20T05:11:26;18.60;99.90
16781;DHT22;8507;50.056;8.248;2023-07-20T05:13:51;18.50;99.90
16781;DHT22;8507;50.056;8.248;2023-07-20T05:16:17;18.50;99.90
16781;DHT22;8507;50.056;8.248;2023-07-20T05:18:42;18.50;99.90
16781;DHT22;8507;50.056;8.248;2023-07-20T05:21:08;18.60;99.90
16781;DHT22;8507;50.056;8.248;2023-07-20T05:23:33;18.60;99.90
16781;DHT22;8507;50.056;8.248;2023-07-20T05:25:59;18.70;99.90
16781;DHT22;8507;50.056;8.248;2023-07-20T05:28:28;18.70;99.90
16781;DHT22;8507;50.056;8.248;2023-07-20T05:30:53;18.70;99.90
16781;DHT22;8507;50.056;8.248;2023-07-20T05:33:20;18.70;99.90
16781;DHT22;8507;50.056;8.248;2023-07-20T05:35:45;18.70;99.90
16781;DHT22;8507;50.056;8.248;2023-07-20T05:38:11;18.80;99.90
16781;DHT22;8507;50.056;8.248;2023-07-20T05:40:44;18.80;99.90
16781;DHT22;8507;50.056;8.248;2023-07-20T05:43:10;18.80;99.90
16781;DHT22;8507;50.056;8.248;2023-07-20T05:45:36;18.80;99.90
16781;DHT22;8507;50.056;8.248;2023-07-20T05:48:02;18.90;99.90
16781;DHT22;8507;50.056;8.248;2023-07-20T05:50:28;18.90;99.90
16781;DHT22;8507;50.056;8.248;2023-07-20T05:52:54;19.00;99.90
16781;DHT22;8507;50.056;8.248;2023-07-20T05:55:20;19.20;99.90
16781;DHT22;8507;50.056;8.248;2023-07-20T05:57:46;19.20;99.90
16781;DHT22;8507;50.056;8.248;2023-07-20T06:00:13;19.20;99.90
16781;DHT22;8507;50.056;8.248;2023-07-20T06:02:39;19.30;99.90
16781;DHT22;8507;50.056;8.248;2023-07-20T06:05:06;19.40;99.90
16781;DHT22;8507;50.056;8.248;2023-07-20T06:07:36;19.60;99.90
16781;DHT22;8507;50.056;8.248;2023-07-20T06:10:01;19.80;99.90
16781;DHT22;8507;50.056;8.248;2023-07-20T06:12:27;19.90;99.90
16781;DHT22;8507;50.056;8.248;2023-07-20T06:14:53;20.00;99.90
16781;DHT22;8507;50.056;8.248;2023-07-20T06:17:19;20.00;99.90
16781;DHT22;8507;50.056;8.248;2023-07-20T06:19:44;20.20;99.90
16781;DHT22;8507;50.056;8.248;2023-07-20T06:22:10;20.20;99.90
16781;DHT22;8507;50.056;8.248;2023-07-20T06:24:36;20.10;99.90
16781;DHT22;8507;50.056;8.248;2023-07-20T06:27:01;20.10;99.90
16781;DHT22;8507;50.056;8.248;2023-07-20T06:29:28;20.30;99.90
16781;DHT22;8507;50.056;8.248;2023-07-20T06:31:53;20.40;99.90
16781;DHT22;8507;50.056;8.248;2023-07-20T06:34:19;20.40;99.90
16781;DHT22;8507;50.056;8.248;2023-07-20T06:36:44;20.60;99.90
16781;DHT22;8507;50.056;8.248;2023-07-20T06:39:10;20.80;99.90
16781;DHT22;8507;50.056;8.248;2023-07-20T06:41:36;20.90;99.90
16781;DHT22;8507;50.056;8.248;2023-07-20T06:44:02;21.00;99.90
16781;DHT22;8507;50.056;8.248;2023-07-20T06:46:28;21.00;99.90
16781;DHT22;8507;50.056;8.248;2023-07-20T06:48:54;21.10;99.90
16781;DHT22;8507;50.056;8.248;2023-07-20T06:51:20;21.20;99.90
16781;DHT22;8507;50.056;8.248;2023-07-20T06:53:45;21.40;99.90
16781;DHT22;8507;50.056;8.248;2023-07-20T06:56:11;21.40;99.90
16781;DHT22;8507;50.056;8.248;2023-07-20T06:58:37;21.50;99.90
16781;DHT22;8507;50.056;8.248;2023-07-20T07:01:07;21.90;99.90
16781;DHT22;8507;50.056;8.248;2023-07-20T07:03:32;22.20;99.90
16781;DHT22;8507;50.056;8.248;2023-07-20T07:05:59;22.30;99.90
16781;DHT22;8507;50.056;8.248;2023-07-20T07:08:24;22.20;99.90
16781;DHT22;8507;50.056;8.248;2023-07-20T07:10:50;22.20;99.90
16781;DHT22;8507;50.056;8.248;2023-07-20T07:13:16;21.70;99.90
16781;DHT22;8507;50.056;8.248;2023-07-20T07:15:42;22.00;99.90
16781;DHT22;8507;50.056;8.248;2023-07-20T07:18:07;21.80;99.90
16781;DHT22;8507;50.056;8.248;2023-07-20T07:20:33;21.90;99.90
16781;DHT22;8507;50.056;8.248;2023-07-20T07:22:59;21.90;99.90
16781;DHT22;8507;50.056;8.248;2023-07-20T07:25:24;21.80;99.90
16781;DHT22;8507;50.056;8.248;2023-07-20T07:27:51;22.00;99.90
16781;DHT22;8507;50.056;8.248;2023-07-20T07:30:17;21.70;99.90
16781;DHT22;8507;50.056;8.248;2023-07-20T07:32:43;21.20;99.90
16781;DHT22;8507;50.056;8.248;2023-07-20T07:35:08;21.00;99.90
16781;DHT22;8507;50.056;8.248;2023-07-20T07:37:34;21.30;99.90
16781;DHT22;8507;50.056;8.248;2023-07-20T07:40:00;21.70;99.90
16781;DHT22;8507;50.056;8.248;2023-07-20T07:42:25;22.50;99.90
16781;DHT22;8507;50.056;8.248;2023-07-20T07:44:51;23.00;99.90
16781;DHT22;8507;50.056;8.248;2023-07-20T07:47:17;23.10;99.90
16781;DHT22;8507;50.056;8.248;2023-07-20T07:49:42;23.50;99.90
16781;DHT22;8507;50.056;8.248;2023-07-20T07:52:08;23.50;99.90
16781;DHT22;8507;50.056;8.248;2023-07-20T07:54:33;23.40;99.90
16781;DHT22;8507;50.056;8.248;2023-07-20T07:56:59;23.40;99.90
16781;DHT22;8507;50.056;8.248;2023-07-20T07:59:25;23.50;99.90
16781;DHT22;8507;50.056;8.248;2023-07-20T08:01:50;23.50;99.90
16781;DHT22;8507;50.056;8.248;2023-07-20T08:04:16;23.50;99.90
16781;DHT22;8507;50.056;8.248;2023-07-20T08:06:41;23.30;99.90
16781;DHT22;8507;50.056;8.248;2023-07-20T08:09:08;23.20;99.90
16781;DHT22;8507;50.056;8.248;2023-07-20T08:11:33;23.10;99.90
16781;DHT22;8507;50.056;8.248;2023-07-20T08:14:02;23.20;99.90
16781;DHT22;8507;50.056;8.248;2023-07-20T08:16:28;22.80;99.90
16781;DHT22;8507;50.056;8.248;2023-07-20T08:18:53;22.70;99.90
16781;DHT22;8507;50.056;8.248;2023-07-20T08:21:19;22.10;99.90
16781;DHT22;8507;50.056;8.248;2023-07-20T08:23:44;21.60;99.90
16781;DHT22;8507;50.056;8.248;2023-07-20T08:26:10;21.70;99.90
16781;DHT22;8507;50.056;8.248;2023-07-20T08:28:35;22.00;99.90
16781;DHT22;8507;50.056;8.248;2023-07-20T08:31:01;22.60;99.90
16781;DHT22;8507;50.056;8.248;2023-07-20T08:33:28;23.10;99.90
16781;DHT22;8507;50.056;8.248;2023-07-20T08:35:55;23.50;99.90
16781;DHT22;8507;50.056;8.248;2023-07-20T08:38:21;23.60;99.90
16781;DHT22;8507;50.056;8.248;2023-07-20T08:40:47;23.70;99.90
16781;DHT22;8507;50.056;8.248;2023-07-20T08:43:14;23.80;99.90
16781;DHT22;8507;50.056;8.248;2023-07-20T08:45:42;23.60;99.90
16781;DHT22;8507;50.056;8.248;2023-07-20T08:48:10;23.60;99.90
16781;DHT22;8507;50.056;8.248;2023-07-20T08:50:37;23.50;99.90
16781;DHT22;8507;50.056;8.248;2023-07-20T08:53:03;23.60;99.90
16781;DHT22;8507;50.056;8.248;2023-07-20T08:55:30;23.60;99.90
16781;DHT22;8507;50.056;8.248;2023-07-20T08:57:57;23.50;99.90
16781;DHT22;8507;50.056;8.248;2023-07-20T09:00:24;23.50;99.90
16781;DHT22;8507;50.056;8.248;2023-07-20T09:02:53;23.90;99.90
16781;DHT22;8507;50.056;8.248;2023-07-20T09:05:19;24.10;99.90
16781;DHT22;8507;50.056;8.248;2023-07-20T09:07:46;24.10;99.90
16781;DHT22;8507;50.056;8.248;2023-07-20T09:10:11;24.50;99.90
16781;DHT22;8507;50.056;8.248;2023-07-20T09:12:38;24.60;99.90
16781;DHT22;8507;50.056;8.248;2023-07-20T09:15:06;24.70;99.90
16781;DHT22;8507;50.056;8.248;2023-07-20T09:17:32;25.10;99.90
16781;DHT22;8507;50.056;8.248;2023-07-20T09:19:57;25.40;99.90
16781;DHT22;8507;50.056;8.248;2023-07-20T09:22:30;25.50;99.90
16781;DHT22;8507;50.056;8.248;2023-07-20T09:24:56;25.30;99.90
16781;DHT22;8507;50.056;8.248;2023-07-20T09:27:24;24.70;99.90
16781;DHT22;8507;50.056;8.248;2023-07-20T09:29:54;23.80;99.90
16781;DHT22;8507;50.056;8.248;2023-07-20T09:32:22;24.00;99.90
16781;DHT22;8507;50.056;8.248;2023-07-20T09:34:49;24.10;99.90
16781;DHT22;8507;50.056;8.248;2023-07-20T09:37:22;24.20;99.90
16781;DHT22;8507;50.056;8.248;2023-07-20T09:39:48;24.60;99.90
16781;DHT22;8507;50.056;8.248;2023-07-20T09:42:16;24.80;99.90
16781;DHT22;8507;50.056;8.248;2023-07-20T09:44:45;24.90;99.90
16781;DHT22;8507;50.056;8.248;2023-07-20T09:47:11;24.90;99.90
16781;DHT22;8507;50.056;8.248;2023-07-20T09:49:39;24.80;99.90
16781;DHT22;8507;50.056;8.248;2023-07-20T09:52:07;25.10;99.90
16781;DHT22;8507;50.056;8.248;2023-07-20T09:54:33;25.30;99.90
16781;DHT22;8507;50.056;8.248;2023-07-20T09:57:00;25.80;99.90
16781;DHT22;8507;50.056;8.248;2023-07-20T09:59:26;26.00;99.90
16781;DHT22;8507;50.056;8.248;2023-07-20T10:01:53;26.30;99.90
16781;DHT22;8507;50.056;8.248;2023-07-20T10:04:22;26.70;99.90
16781;DHT22;8507;50.056;8.248;2023-07-20T10:06:49;26.30;99.90
16781;DHT22;8507;50.056;8.248;2023-07-20T10:09:18;26.40;99.90
16781;DHT22;8507;50.056;8.248;2023-07-20T10:11:50;26.20;99.90
16781;DHT22;8507;50.056;8.248;2023-07-20T10:14:20;25.40;99.90
16781;DHT22;8507;50.056;8.248;2023-07-20T10:16:54;25.00;99.90
16781;DHT22;8507;50.056;8.248;2023-07-20T10:19:32;25.00;99.90
16781;DHT22;8507;50.056;8.248;2023-07-20T10:22:12;24.90;99.90
16781;DHT22;8507;50.056;8.248;2023-07-20T10:24:39;24.90;99.90
16781;DHT22;8507;50.056;8.248;2023-07-20T10:27:05;24.90;99.90
16781;DHT22;8507;50.056;8.248;2023-07-20T10:29:31;24.90;99.90
16781;DHT22;8507;50.056;8.248;2023-07-20T10:31:57;25.00;99.90
16781;DHT22;8507;50.056;8.248;2023-07-20T10:34:26;25.20;99.90
16781;DHT22;8507;50.056;8.248;2023-07-20T10:36:51;25.50;99.90
16781;DHT22;8507;50.056;8.248;2023-07-20T10:39:28;25.80;99.90
16781;DHT22;8507;50.056;8.248;2023-07-20T10:42:06;26.10;99.90
16781;DHT22;8507;50.056;8.248;2023-07-20T10:44:33;26.20;99.90
16781;DHT22;8507;50.056;8.248;2023-07-20T10:47:03;26.40;99.90
16781;DHT22;8507;50.056;8.248;2023-07-20T10:49:33;26.60;99.90
16781;DHT22;8507;50.056;8.248;2023-07-20T10:51:59;26.30;99.90
16781;DHT22;8507;50.056;8.248;2023-07-20T10:56:51;25.80;99.90
16781;DHT22;8507;50.056;8.248;2023-07-20T11:01:50;25.80;99.90
16781;DHT22;8507;50.056;8.248;2023-07-20T11:04:16;25.90;99.90
16781;DHT22;8507;50.056;8.248;2023-07-20T11:06:44;25.90;99.90
16781;DHT22;8507;50.056;8.248;2023-07-20T11:09:14;26.00;99.90
16781;DHT22;8507;50.056;8.248;2023-07-20T11:14:21;26.40;99.90
16781;DHT22;8507;50.056;8.248;2023-07-20T11:16:48;26.80;99.90
16781;DHT22;8507;50.056;8.248;2023-07-20T11:19:19;26.90;99.90
16781;DHT22;8507;50.056;8.248;2023-07-20T11:21:46;27.10;99.90
16781;DHT22;8507;50.056;8.248;2023-07-20T11:24:14;27.40;99.90
16781;DHT22;8507;50.056;8.248;2023-07-20T11:26:41;27.50;99.90
16781;DHT22;8507;50.056;8.248;2023-07-20T11:29:07;27.80;99.90
16781;DHT22;8507;50.056;8.248;2023-07-20T11:31:40;27.80;99.90
16781;DHT22;8507;50.056;8.248;2023-07-20T11:34:10;28.00;99.90
16781;DHT22;8507;50.056;8.248;2023-07-20T11:36:38;27.60;99.90
16781;DHT22;8507;50.056;8.248;2023-07-20T11:39:04;25.70;99.90
16781;DHT22;8507;50.056;8.248;2023-07-20T11:41:31;25.20;99.90
16781;DHT22;8507;50.056;8.248;2023-07-20T11:43:57;24.30;99.90
16781;DHT22;8507;50.056;8.248;2023-07-20T11:46:23;23.90;99.90
16781;DHT22;8507;50.056;8.248;2023-07-20T11:48:48;24.10;99.90
16781;DHT22;8507;50.056;8.248;2023-07-20T11:51:17;24.30;99.90
16781;DHT22;8507;50.056;8.248;2023-07-20T11:53:44;24.80;99.90
16781;DHT22;8507;50.056;8.248;2023-07-20T11:56:11;24.40;99.90
16781;DHT22;8507;50.056;8.248;2023-07-20T11:58:42;23.90;99.90
16781;DHT22;8507;50.056;8.248;2023-07-20T12:01:09;24.00;99.90
16781;DHT22;8507;50.056;8.248;2023-07-20T12:03:35;23.70;99.90
16781;DHT22;8507;50.056;8.248;2023-07-20T12:06:08;23.60;99.90
16781;DHT22;8507;50.056;8.248;2023-07-20T12:08:34;23.70;99.90
16781;DHT22;8507;50.056;8.248;2023-07-20T12:10:59;23.20;99.90
16781;DHT22;8507;50.056;8.248;2023-07-20T12:13:36;23.40;99.90
16781;DHT22;8507;50.056;8.248;2023-07-20T12:16:15;24.00;99.90
16781;DHT22;8507;50.056;8.248;2023-07-20T12:18:44;24.30;99.90
16781;DHT22;8507;50.056;8.248;2023-07-20T12:21:10;24.80;99.90
16781;DHT22;8507;50.056;8.248;2023-07-20T12:23:37;25.40;99.90
16781;DHT22;8507;50.056;8.248;2023-07-20T12:26:06;26.30;99.90
16781;DHT22;8507;50.056;8.248;2023-07-20T12:28:32;26.80;99.90
16781;DHT22;8507;50.056;8.248;2023-07-20T12:30:57;27.40;99.90
16781;DHT22;8507;50.056;8.248;2023-07-20T12:33:23;27.80;99.90
16781;DHT22;8507;50.056;8.248;2023-07-20T12:35:51;27.80;99.90
16781;DHT22;8507;50.056;8.248;2023-07-20T12:38:21;27.10;99.90
16781;DHT22;8507;50.056;8.248;2023-07-20T12:40:47;26.30;99.90
16781;DHT22;8507;50.056;8.248;2023-07-20T12:43:13;27.30;99.90
16781;DHT22;8507;50.056;8.248;2023-07-20T12:45:38;27.20;99.90
16781;DHT22;8507;50.056;8.248;2023-07-20T12:48:04;27.90;99.90
16781;DHT22;8507;50.056;8.248;2023-07-20T12:50:30;28.40;99.90
16781;DHT22;8507;50.056;8.248;2023-07-20T12:52:55;28.60;99.90
16781;DHT22;8507;50.056;8.248;2023-07-20T12:55:21;27.60;99.90
16781;DHT22;8507;50.056;8.248;2023-07-20T12:57:46;28.40;99.90
16781;DHT22;8507;50.056;8.248;2023-07-20T13:00:14;28.50;99.90
16781;DHT22;8507;50.056;8.248;2023-07-20T13:02:40;27.90;99.90
16781;DHT22;8507;50.056;8.248;2023-07-20T13:05:07;27.60;99.90
16781;DHT22;8507;50.056;8.248;2023-07-20T13:07:34;27.00;99.90
16781;DHT22;8507;50.056;8.248;2023-07-20T13:10:01;26.70;99.90
16781;DHT22;8507;50.056;8.248;2023-07-20T13:12:31;27.00;99.90
16781;DHT22;8507;50.056;8.248;2023-07-20T13:14:58;26.50;99.90
16781;DHT22;8507;50.056;8.248;2023-07-20T13:17:27;26.00;99.90
16781;DHT22;8507;50.056;8.248;2023-07-20T13:19:54;26.20;99.90
16781;DHT22;8507;50.056;8.248;2023-07-20T13:22:20;26.70;99.90
16781;DHT22;8507;50.056;8.248;2023-07-20T13:24:46;26.60;99.90
16781;DHT22;8507;50.056;8.248;2023-07-20T13:27:16;27.30;99.90
16781;DHT22;8507;50.056;8.248;2023-07-20T13:29:42;27.10;99.90
16781;DHT22;8507;50.056;8.248;2023-07-20T13:32:08;25.70;99.90
16781;DHT22;8507;50.056;8.248;2023-07-20T13:34:33;25.20;99.90
16781;DHT22;8507;50.056;8.248;2023-07-20T13:37:00;25.20;99.90
16781;DHT22;8507;50.056;8.248;2023-07-20T13:39:25;25.00;99.90
16781;DHT22;8507;50.056;8.248;2023-07-20T13:41:52;24.80;99.90
16781;DHT22;8507;50.056;8.248;2023-07-20T13:44:18;25.30;99.90
16781;DHT22;8507;50.056;8.248;2023-07-20T13:46:43;25.30;99.90
16781;DHT22;8507;50.056;8.248;2023-07-20T13:49:09;25.70;99.90
16781;DHT22;8507;50.056;8.248;2023-07-20T13:51:34;25.20;99.90
16781;DHT22;8507;50.056;8.248;2023-07-20T13:54:00;24.70;99.90
16781;DHT22;8507;50.056;8.248;2023-07-20T13:56:26;24.80;99.90
16781;DHT22;8507;50.056;8.248;2023-07-20T13:58:52;24.60;99.90
16781;DHT22;8507;50.056;8.248;2023-07-20T14:01:18;24.30;99.90
16781;DHT22;8507;50.056;8.248;2023-07-20T14:03:44;24.20;99.90
16781;DHT22;8507;50.056;8.248;2023-07-20T14:06:10;24.30;99.90
16781;DHT22;8507;50.056;8.248;2023-07-20T14:08:37;24.70;99.90
16781;DHT22;8507;50.056;8.248;2023-07-20T14:11:03;24.60;99.90
16781;DHT22;8507;50.056;8.248;2023-07-20T14:13:28;24.90;99.90
16781;DHT22;8507;50.056;8.248;2023-07-20T14:15:54;24.70;99.90
16781;DHT22;8507;50.056;8.248;2023-07-20T14:18:20;24.70;99.90
16781;DHT22;8507;50.056;8.248;2023-07-20T14:20:45;24.40;99.90
16781;DHT22;8507;50.056;8.248;2023-07-20T14:23:11;24.60;99.90
16781;DHT22;8507;50.056;8.248;2023-07-20T14:25:36;24.40;99.90
16781;DHT22;8507;50.056;8.248;2023-07-20T14:28:02;24.70;99.90
16781;DHT22;8507;50.056;8.248;2023-07-20T14:30:27;24.60;99.90
16781;DHT22;8507;50.056;8.248;2023-07-20T14:32:53;24.80;99.90
16781;DHT22;8507;50.056;8.248;2023-07-20T14:35:18;24.90;99.90
16781;DHT22;8507;50.056;8.248;2023-07-20T14:37:45;24.90;99.90
16781;DHT22;8507;50.056;8.248;2023-07-20T14:40:13;24.80;99.90
16781;DHT22;8507;50.056;8.248;2023-07-20T14:42:38;25.00;99.90
16781;DHT22;8507;50.056;8.248;2023-07-20T14:45:04;25.40;99.90
16781;DHT22;8507;50.056;8.248;2023-07-20T14:47:31;25.60;99.90
16781;DHT22;8507;50.056;8.248;2023-07-20T14:50:01;25.00;99.90
16781;DHT22;8507;50.056;8.248;2023-07-20T14:52:28;25.20;99.90
16781;DHT22;8507;50.056;8.248;2023-07-20T14:54:53;25.30;99.90
16781;DHT22;8507;50.056;8.248;2023-07-20T14:57:19;25.20;99.90
16781;DHT22;8507;50.056;8.248;2023-07-20T14:59:46;25.50;99.90
16781;DHT22;8507;50.056;8.248;2023-07-20T15:02:11;25.20;99.90
16781;DHT22;8507;50.056;8.248;2023-07-20T15:04:37;25.30;99.90
16781;DHT22;8507;50.056;8.248;2023-07-20T15:07:03;25.00;99.90
16781;DHT22;8507;50.056;8.248;2023-07-20T15:09:29;24.80;99.90
16781;DHT22;8507;50.056;8.248;2023-07-20T15:11:54;24.90;99.90
16781;DHT22;8507;50.056;8.248;2023-07-20T15:14:20;25.20;99.90
16781;DHT22;8507;50.056;8.248;2023-07-20T15:16:45;24.70;99.90
16781;DHT22;8507;50.056;8.248;2023-07-20T15:19:11;24.60;99.90
16781;DHT22;8507;50.056;8.248;2023-07-20T15:21:38;24.80;99.90
16781;DHT22;8507;50.056;8.248;2023-07-20T15:24:04;24.90;99.90
16781;DHT22;8507;50.056;8.248;2023-07-20T15:26:30;25.30;99.90
16781;DHT22;8507;50.056;8.248;2023-07-20T15:28:56;25.50;99.90
16781;DHT22;8507;50.056;8.248;2023-07-20T15:31:23;25.50;99.90
16781;DHT22;8507;50.056;8.248;2023-07-20T15:33:49;25.20;99.90
16781;DHT22;8507;50.056;8.248;2023-07-20T15:36:15;25.20;99.90
16781;DHT22;8507;50.056;8.248;2023-07-20T15:38:40;25.10;99.90
16781;DHT22;8507;50.056;8.248;2023-07-20T15:41:06;25.00;99.90
16781;DHT22;8507;50.056;8.248;2023-07-20T15:43:32;24.90;99.90
16781;DHT22;8507;50.056;8.248;2023-07-20T15:46:05;24.70;99.90
16781;DHT22;8507;50.056;8.248;2023-07-20T15:48:47;24.90;99.90
16781;DHT22;8507;50.056;8.248;2023-07-20T15:51:12;24.60;99.90
16781;DHT22;8507;50.056;8.248;2023-07-20T15:53:39;24.90;99.90
16781;DHT22;8507;50.056;8.248;2023-07-20T15:56:04;24.80;99.90
16781;DHT22;8507;50.056;8.248;2023-07-20T15:58:34;25.00;99.90
16781;DHT22;8507;50.056;8.248;2023-07-20T16:01:00;25.00;99.90